sensor_id;sensor_type;location;lat;lon;timestamp;P1;durP1;ratioP1;P2;durP2;ratioP2
27039;SDS011;14589;51.578;7.306;2023-08-24T00:01:42;4.32;;;1.27;;
27039;SDS011;14589;51.578;7.306;2023-08-24T00:04:12;4.60;;;1.60;;
27039;SDS011;14589;51.578;7.306;2023-08-24T00:06:42;2.60;;;0.95;;
27039;SDS011;14589;51.578;7.306;2023-08-24T00:09:13;2.05;;;0.95;;
27039;SDS011;14589;51.578;7.306;2023-08-24T00:11:45;2.97;;;1.02;;
27039;SDS011;14589;51.578;7.306;2023-08-24T00:14:16;3.75;;;1.48;;
27039;SDS011;14589;51.578;7.306;2023-08-24T00:16:46;4.32;;;1.63;;
27039;SDS011;14589;51.578;7.306;2023-08-24T00:19:16;6.55;;;2.33;;
27039;SDS011;14589;51.578;7.306;2023-08-24T00:21:47;5.85;;;2.08;;
27039;SDS011;14589;51.578;7.306;2023-08-24T00:24:17;6.95;;;2.70;;
27039;SDS011;14589;51.578;7.306;2023-08-24T00:26:48;5.85;;;2.72;;
27039;SDS011;14589;51.578;7.306;2023-08-24T00:29:18;4.53;;;2.17;;
27039;SDS011;14589;51.578;7.306;2023-08-24T00:31:49;3.17;;;1.17;;
27039;SDS011;14589;51.578;7.306;2023-08-24T00:34:19;3.72;;;2.05;;
27039;SDS011;14589;51.578;7.306;2023-08-24T00:36:49;4.05;;;2.05;;
27039;SDS011;14589;51.578;7.306;2023-08-24T00:39:20;4.28;;;1.10;;
27039;SDS011;14589;51.578;7.306;2023-08-24T00:41:50;4.47;;;2.13;;
27039;SDS011;14589;51.578;7.306;2023-08-24T00:44:21;2.70;;;1.08;;
27039;SDS011;14589;51.578;7.306;2023-08-24T00:46:52;4.55;;;2.03;;
27039;SDS011;14589;51.578;7.306;2023-08-24T00:49:22;3.80;;;1.33;;
27039;SDS011;14589;51.578;7.306;2023-08-24T00:51:53;5.05;;;1.83;;
27039;SDS011;14589;51.578;7.306;2023-08-24T00:54:23;3.53;;;1.33;;
27039;SDS011;14589;51.578;7.306;2023-08-24T00:56:55;2.70;;;1.60;;
27039;SDS011;14589;51.578;7.306;2023-08-24T00:59:26;4.35;;;2.20;;
27039;SDS011;14589;51.578;7.306;2023-08-24T01:01:56;3.90;;;1.65;;
27039;SDS011;14589;51.578;7.306;2023-08-24T01:04:26;6.80;;;1.00;;
27039;SDS011;14589;51.578;7.306;2023-08-24T01:06:57;3.88;;;1.40;;
27039;SDS011;14589;51.578;7.306;2023-08-24T01:09:28;12.13;;;2.13;;
27039;SDS011;14589;51.578;7.306;2023-08-24T01:12:42;3.40;;;1.40;;
27039;SDS011;14589;51.578;7.306;2023-08-24T01:15:06;3.78;;;1.92;;
27039;SDS011;14589;51.578;7.306;2023-08-24T01:17:43;2.58;;;1.55;;
27039;SDS011;14589;51.578;7.306;2023-08-24T01:20:14;3.53;;;1.52;;
27039;SDS011;14589;51.578;7.306;2023-08-24T01:22:49;3.05;;;1.63;;
27039;SDS011;14589;51.578;7.306;2023-08-24T01:25:32;4.25;;;1.88;;
27039;SDS011;14589;51.578;7.306;2023-08-24T01:28:09;4.25;;;1.45;;
27039;SDS011;14589;51.578;7.306;2023-08-24T01:30:43;3.10;;;1.67;;
27039;SDS011;14589;51.578;7.306;2023-08-24T01:33:14;5.80;;;2.28;;
27039;SDS011;14589;51.578;7.306;2023-08-24T01:35:44;4.97;;;1.70;;
27039;SDS011;14589;51.578;7.306;2023-08-24T01:38:15;5.70;;;3.20;;
27039;SDS011;14589;51.578;7.306;2023-08-24T01:40:48;4.32;;;2.15;;
27039;SDS011;14589;51.578;7.306;2023-08-24T01:43:51;4.35;;;2.03;;
27039;SDS011;14589;51.578;7.306;2023-08-24T01:46:23;5.70;;;3.00;;
27039;SDS011;14589;51.578;7.306;2023-08-24T01:48:55;3.45;;;2.15;;
27039;SDS011;14589;51.578;7.306;2023-08-24T01:51:26;5.43;;;2.78;;
27039;SDS011;14589;51.578;7.306;2023-08-24T01:53:57;6.22;;;2.20;;
27039;SDS011;14589;51.578;7.306;2023-08-24T01:56:28;6.03;;;2.38;;
27039;SDS011;14589;51.578;7.306;2023-08-24T01:58:58;4.35;;;2.35;;
27039;SDS011;14589;51.578;7.306;2023-08-24T02:01:29;3.20;;;2.00;;
27039;SDS011;14589;51.578;7.306;2023-08-24T02:04:00;4.85;;;2.50;;
27039;SDS011;14589;51.578;7.306;2023-08-24T02:06:30;4.13;;;2.15;;
27039;SDS011;14589;51.578;7.306;2023-08-24T02:09:01;4.57;;;2.80;;
27039;SDS011;14589;51.578;7.306;2023-08-24T02:11:33;8.52;;;3.85;;
27039;SDS011;14589;51.578;7.306;2023-08-24T02:14:05;5.60;;;2.75;;
27039;SDS011;14589;51.578;7.306;2023-08-24T02:16:40;4.32;;;2.40;;
27039;SDS011;14589;51.578;7.306;2023-08-24T02:19:11;4.22;;;2.35;;
27039;SDS011;14589;51.578;7.306;2023-08-24T02:21:41;4.95;;;2.95;;
27039;SDS011;14589;51.578;7.306;2023-08-24T02:24:11;5.65;;;1.95;;
27039;SDS011;14589;51.578;7.306;2023-08-24T02:26:42;4.00;;;2.20;;
27039;SDS011;14589;51.578;7.306;2023-08-24T02:29:13;3.97;;;2.38;;
27039;SDS011;14589;51.578;7.306;2023-08-24T02:31:44;3.60;;;2.05;;
27039;SDS011;14589;51.578;7.306;2023-08-24T02:34:14;4.50;;;2.50;;
27039;SDS011;14589;51.578;7.306;2023-08-24T02:36:44;5.80;;;2.05;;
27039;SDS011;14589;51.578;7.306;2023-08-24T02:39:15;3.08;;;2.10;;
27039;SDS011;14589;51.578;7.306;2023-08-24T02:41:46;4.30;;;2.88;;
27039;SDS011;14589;51.578;7.306;2023-08-24T02:44:18;5.55;;;2.58;;
27039;SDS011;14589;51.578;7.306;2023-08-24T02:46:48;4.72;;;2.63;;
27039;SDS011;14589;51.578;7.306;2023-08-24T02:49:21;5.10;;;3.22;;
27039;SDS011;14589;51.578;7.306;2023-08-24T02:51:51;3.67;;;1.90;;
27039;SDS011;14589;51.578;7.306;2023-08-24T02:54:22;4.68;;;3.30;;
27039;SDS011;14589;51.578;7.306;2023-08-24T02:56:53;5.32;;;2.72;;
27039;SDS011;14589;51.578;7.306;2023-08-24T02:59:23;4.13;;;2.35;;
27039;SDS011;14589;51.578;7.306;2023-08-24T03:01:54;3.67;;;2.33;;
27039;SDS011;14589;51.578;7.306;2023-08-24T03:04:24;5.80;;;2.33;;
27039;SDS011;14589;51.578;7.306;2023-08-24T03:06:56;5.80;;;2.33;;
27039;SDS011;14589;51.578;7.306;2023-08-24T03:09:27;4.38;;;2.40;;
27039;SDS011;14589;51.578;7.306;2023-08-24T03:11:57;3.85;;;1.42;;
27039;SDS011;14589;51.578;7.306;2023-08-24T03:14:28;5.15;;;2.70;;
27039;SDS011;14589;51.578;7.306;2023-08-24T03:16:58;6.65;;;2.28;;
27039;SDS011;14589;51.578;7.306;2023-08-24T03:19:29;5.18;;;2.58;;
27039;SDS011;14589;51.578;7.306;2023-08-24T03:22:00;4.70;;;1.70;;
27039;SDS011;14589;51.578;7.306;2023-08-24T03:24:30;3.90;;;1.85;;
27039;SDS011;14589;51.578;7.306;2023-08-24T03:27:01;4.63;;;2.08;;
27039;SDS011;14589;51.578;7.306;2023-08-24T03:29:31;3.85;;;2.00;;
27039;SDS011;14589;51.578;7.306;2023-08-24T03:32:01;6.03;;;1.65;;
27039;SDS011;14589;51.578;7.306;2023-08-24T03:34:32;4.80;;;2.42;;
27039;SDS011;14589;51.578;7.306;2023-08-24T03:37:02;3.72;;;2.13;;
27039;SDS011;14589;51.578;7.306;2023-08-24T03:39:36;5.35;;;1.73;;
27039;SDS011;14589;51.578;7.306;2023-08-24T03:42:07;5.07;;;2.70;;
27039;SDS011;14589;51.578;7.306;2023-08-24T03:44:37;3.97;;;1.80;;
27039;SDS011;14589;51.578;7.306;2023-08-24T03:47:08;8.35;;;3.25;;
27039;SDS011;14589;51.578;7.306;2023-08-24T03:49:41;3.67;;;2.38;;
27039;SDS011;14589;51.578;7.306;2023-08-24T03:52:13;4.70;;;2.33;;
27039;SDS011;14589;51.578;7.306;2023-08-24T03:54:44;4.25;;;2.28;;
27039;SDS011;14589;51.578;7.306;2023-08-24T03:57:15;4.53;;;2.65;;
27039;SDS011;14589;51.578;7.306;2023-08-24T03:59:46;3.83;;;2.00;;
27039;SDS011;14589;51.578;7.306;2023-08-24T04:02:16;2.25;;;1.48;;
27039;SDS011;14589;51.578;7.306;2023-08-24T04:04:47;5.15;;;3.78;;
27039;SDS011;14589;51.578;7.306;2023-08-24T04:07:18;4.20;;;2.40;;
27039;SDS011;14589;51.578;7.306;2023-08-24T04:09:51;4.28;;;1.65;;
27039;SDS011;14589;51.578;7.306;2023-08-24T04:12:22;4.00;;;1.27;;
27039;SDS011;14589;51.578;7.306;2023-08-24T04:14:53;4.80;;;2.03;;
27039;SDS011;14589;51.578;7.306;2023-08-24T04:17:24;5.97;;;3.58;;
27039;SDS011;14589;51.578;7.306;2023-08-24T04:19:55;3.88;;;2.22;;
27039;SDS011;14589;51.578;7.306;2023-08-24T04:22:25;4.40;;;2.78;;
27039;SDS011;14589;51.578;7.306;2023-08-24T04:24:56;6.40;;;3.03;;
27039;SDS011;14589;51.578;7.306;2023-08-24T04:27:26;5.80;;;2.55;;
27039;SDS011;14589;51.578;7.306;2023-08-24T04:29:57;4.65;;;2.75;;
27039;SDS011;14589;51.578;7.306;2023-08-24T04:32:27;8.32;;;3.13;;
27039;SDS011;14589;51.578;7.306;2023-08-24T04:34:58;9.32;;;4.32;;
27039;SDS011;14589;51.578;7.306;2023-08-24T04:37:28;6.97;;;4.45;;
27039;SDS011;14589;51.578;7.306;2023-08-24T04:39:59;7.70;;;4.30;;
27039;SDS011;14589;51.578;7.306;2023-08-24T04:42:29;8.43;;;4.95;;
27039;SDS011;14589;51.578;7.306;2023-08-24T04:44:59;7.75;;;4.05;;
27039;SDS011;14589;51.578;7.306;2023-08-24T04:47:30;6.50;;;3.47;;
27039;SDS011;14589;51.578;7.306;2023-08-24T04:50:00;6.18;;;4.35;;
27039;SDS011;14589;51.578;7.306;2023-08-24T04:52:31;6.28;;;3.63;;
27039;SDS011;14589;51.578;7.306;2023-08-24T04:55:01;6.97;;;4.72;;
27039;SDS011;14589;51.578;7.306;2023-08-24T04:57:33;10.10;;;6.05;;
27039;SDS011;14589;51.578;7.306;2023-08-24T05:00:04;6.32;;;4.72;;
27039;SDS011;14589;51.578;7.306;2023-08-24T05:02:35;7.00;;;4.30;;
27039;SDS011;14589;51.578;7.306;2023-08-24T05:05:06;8.02;;;4.88;;
27039;SDS011;14589;51.578;7.306;2023-08-24T05:07:37;9.27;;;5.63;;
27039;SDS011;14589;51.578;7.306;2023-08-24T05:10:08;13.75;;;7.82;;
27039;SDS011;14589;51.578;7.306;2023-08-24T05:12:38;9.80;;;6.70;;
27039;SDS011;14589;51.578;7.306;2023-08-24T05:15:09;10.07;;;6.97;;
27039;SDS011;14589;51.578;7.306;2023-08-24T05:17:39;9.45;;;6.25;;
27039;SDS011;14589;51.578;7.306;2023-08-24T05:20:10;9.65;;;6.28;;
27039;SDS011;14589;51.578;7.306;2023-08-24T05:22:42;8.90;;;5.97;;
27039;SDS011;14589;51.578;7.306;2023-08-24T05:25:12;10.65;;;6.25;;
27039;SDS011;14589;51.578;7.306;2023-08-24T05:27:42;11.23;;;7.30;;
27039;SDS011;14589;51.578;7.306;2023-08-24T05:30:13;11.38;;;5.10;;
27039;SDS011;14589;51.578;7.306;2023-08-24T05:32:44;8.23;;;4.22;;
27039;SDS011;14589;51.578;7.306;2023-08-24T05:35:14;7.15;;;5.88;;
27039;SDS011;14589;51.578;7.306;2023-08-24T05:37:44;10.05;;;5.63;;
27039;SDS011;14589;51.578;7.306;2023-08-24T05:40:15;6.43;;;3.85;;
27039;SDS011;14589;51.578;7.306;2023-08-24T05:42:45;9.93;;;5.32;;
27039;SDS011;14589;51.578;7.306;2023-08-24T05:45:16;6.88;;;3.13;;
27039;SDS011;14589;51.578;7.306;2023-08-24T05:47:46;4.75;;;3.08;;
27039;SDS011;14589;51.578;7.306;2023-08-24T05:50:16;8.50;;;5.30;;
27039;SDS011;14589;51.578;7.306;2023-08-24T05:52:47;10.98;;;5.60;;
27039;SDS011;14589;51.578;7.306;2023-08-24T05:55:17;9.40;;;4.97;;
27039;SDS011;14589;51.578;7.306;2023-08-24T05:57:47;9.32;;;4.28;;
27039;SDS011;14589;51.578;7.306;2023-08-24T06:00:18;9.60;;;4.97;;
27039;SDS011;14589;51.578;7.306;2023-08-24T06:02:49;13.27;;;5.88;;
27039;SDS011;14589;51.578;7.306;2023-08-24T06:05:19;13.38;;;5.50;;
27039;SDS011;14589;51.578;7.306;2023-08-24T06:07:49;10.38;;;4.22;;
27039;SDS011;14589;51.578;7.306;2023-08-24T06:10:20;13.55;;;6.32;;
27039;SDS011;14589;51.578;7.306;2023-08-24T06:12:51;7.82;;;5.35;;
27039;SDS011;14589;51.578;7.306;2023-08-24T06:17:53;8.80;;;5.65;;
27039;SDS011;14589;51.578;7.306;2023-08-24T06:20:23;12.82;;;6.55;;
27039;SDS011;14589;51.578;7.306;2023-08-24T06:22:54;8.80;;;4.72;;
27039;SDS011;14589;51.578;7.306;2023-08-24T06:25:25;12.88;;;5.65;;
27039;SDS011;14589;51.578;7.306;2023-08-24T06:27:56;11.77;;;7.35;;
27039;SDS011;14589;51.578;7.306;2023-08-24T06:30:26;9.95;;;5.20;;
27039;SDS011;14589;51.578;7.306;2023-08-24T06:32:57;11.18;;;8.20;;
27039;SDS011;14589;51.578;7.306;2023-08-24T06:35:27;13.52;;;8.32;;
27039;SDS011;14589;51.578;7.306;2023-08-24T06:37:57;14.00;;;7.38;;
27039;SDS011;14589;51.578;7.306;2023-08-24T06:40:28;10.30;;;6.60;;
27039;SDS011;14589;51.578;7.306;2023-08-24T06:42:58;13.43;;;8.85;;
27039;SDS011;14589;51.578;7.306;2023-08-24T06:45:29;14.50;;;9.00;;
27039;SDS011;14589;51.578;7.306;2023-08-24T06:48:01;13.80;;;9.15;;
27039;SDS011;14589;51.578;7.306;2023-08-24T06:50:33;9.43;;;5.78;;
27039;SDS011;14589;51.578;7.306;2023-08-24T06:53:04;8.68;;;5.82;;
27039;SDS011;14589;51.578;7.306;2023-08-24T06:55:34;10.93;;;6.95;;
27039;SDS011;14589;51.578;7.306;2023-08-24T06:58:05;10.50;;;6.07;;
27039;SDS011;14589;51.578;7.306;2023-08-24T07:00:35;10.10;;;5.88;;
27039;SDS011;14589;51.578;7.306;2023-08-24T07:03:05;10.75;;;6.60;;
27039;SDS011;14589;51.578;7.306;2023-08-24T07:05:36;8.63;;;5.90;;
27039;SDS011;14589;51.578;7.306;2023-08-24T07:08:06;9.60;;;7.32;;
27039;SDS011;14589;51.578;7.306;2023-08-24T07:10:37;9.23;;;6.30;;
27039;SDS011;14589;51.578;7.306;2023-08-24T07:13:07;11.48;;;5.50;;
27039;SDS011;14589;51.578;7.306;2023-08-24T07:15:37;11.25;;;6.55;;
27039;SDS011;14589;51.578;7.306;2023-08-24T07:18:08;6.30;;;4.00;;
27039;SDS011;14589;51.578;7.306;2023-08-24T07:20:39;7.28;;;5.40;;
27039;SDS011;14589;51.578;7.306;2023-08-24T07:23:09;12.73;;;6.57;;
27039;SDS011;14589;51.578;7.306;2023-08-24T07:25:39;9.02;;;5.47;;
27039;SDS011;14589;51.578;7.306;2023-08-24T07:28:11;9.27;;;5.43;;
27039;SDS011;14589;51.578;7.306;2023-08-24T07:30:41;11.80;;;7.20;;
27039;SDS011;14589;51.578;7.306;2023-08-24T07:33:12;8.35;;;5.32;;
27039;SDS011;14589;51.578;7.306;2023-08-24T07:35:42;13.90;;;6.10;;
27039;SDS011;14589;51.578;7.306;2023-08-24T07:38:12;14.30;;;4.95;;
27039;SDS011;14589;51.578;7.306;2023-08-24T07:40:43;10.27;;;6.70;;
27039;SDS011;14589;51.578;7.306;2023-08-24T07:43:13;11.10;;;4.97;;
27039;SDS011;14589;51.578;7.306;2023-08-24T07:45:43;11.48;;;5.25;;
27039;SDS011;14589;51.578;7.306;2023-08-24T07:48:14;8.30;;;3.92;;
27039;SDS011;14589;51.578;7.306;2023-08-24T07:50:45;6.70;;;4.00;;
27039;SDS011;14589;51.578;7.306;2023-08-24T07:53:15;8.40;;;4.40;;
27039;SDS011;14589;51.578;7.306;2023-08-24T07:55:46;9.50;;;5.18;;
27039;SDS011;14589;51.578;7.306;2023-08-24T07:58:17;7.10;;;3.97;;
27039;SDS011;14589;51.578;7.306;2023-08-24T08:00:49;12.18;;;5.43;;
27039;SDS011;14589;51.578;7.306;2023-08-24T08:03:20;9.13;;;4.25;;
27039;SDS011;14589;51.578;7.306;2023-08-24T08:05:50;9.65;;;4.72;;
27039;SDS011;14589;51.578;7.306;2023-08-24T08:08:21;6.72;;;4.47;;
27039;SDS011;14589;51.578;7.306;2023-08-24T08:10:58;10.13;;;3.65;;
27039;SDS011;14589;51.578;7.306;2023-08-24T08:13:32;6.90;;;3.75;;
27039;SDS011;14589;51.578;7.306;2023-08-24T08:16:02;13.93;;;6.20;;
27039;SDS011;14589;51.578;7.306;2023-08-24T08:18:35;10.60;;;4.22;;
27039;SDS011;14589;51.578;7.306;2023-08-24T08:23:41;6.03;;;4.22;;
27039;SDS011;14589;51.578;7.306;2023-08-24T08:26:11;6.97;;;3.85;;
27039;SDS011;14589;51.578;7.306;2023-08-24T08:28:43;13.90;;;5.65;;
27039;SDS011;14589;51.578;7.306;2023-08-24T08:31:14;14.43;;;5.32;;
27039;SDS011;14589;51.578;7.306;2023-08-24T08:33:44;10.35;;;5.10;;
27039;SDS011;14589;51.578;7.306;2023-08-24T08:36:15;10.90;;;3.85;;
27039;SDS011;14589;51.578;7.306;2023-08-24T08:38:45;10.32;;;3.83;;
27039;SDS011;14589;51.578;7.306;2023-08-24T08:41:15;8.05;;;3.55;;
27039;SDS011;14589;51.578;7.306;2023-08-24T08:43:48;16.27;;;4.85;;
27039;SDS011;14589;51.578;7.306;2023-08-24T08:46:19;7.15;;;3.05;;
27039;SDS011;14589;51.578;7.306;2023-08-24T08:48:51;11.88;;;3.55;;
27039;SDS011;14589;51.578;7.306;2023-08-24T08:51:22;6.65;;;2.30;;
27039;SDS011;14589;51.578;7.306;2023-08-24T08:53:53;11.13;;;2.95;;
27039;SDS011;14589;51.578;7.306;2023-08-24T08:56:24;3.67;;;1.65;;
27039;SDS011;14589;51.578;7.306;2023-08-24T08:58:55;7.07;;;2.35;;
27039;SDS011;14589;51.578;7.306;2023-08-24T09:01:28;7.70;;;2.58;;
27039;SDS011;14589;51.578;7.306;2023-08-24T09:04:00;12.13;;;2.58;;
27039;SDS011;14589;51.578;7.306;2023-08-24T09:06:31;7.03;;;2.35;;
27039;SDS011;14589;51.578;7.306;2023-08-24T09:09:02;6.28;;;2.45;;
27039;SDS011;14589;51.578;7.306;2023-08-24T09:11:32;7.28;;;2.03;;
27039;SDS011;14589;51.578;7.306;2023-08-24T09:14:03;6.65;;;2.65;;
27039;SDS011;14589;51.578;7.306;2023-08-24T09:16:34;4.28;;;2.33;;
27039;SDS011;14589;51.578;7.306;2023-08-24T09:19:05;7.57;;;1.92;;
27039;SDS011;14589;51.578;7.306;2023-08-24T09:21:38;11.43;;;2.47;;
27039;SDS011;14589;51.578;7.306;2023-08-24T09:24:09;6.43;;;1.98;;
27039;SDS011;14589;51.578;7.306;2023-08-24T09:29:15;5.65;;;1.88;;
27039;SDS011;14589;51.578;7.306;2023-08-24T09:31:46;6.35;;;2.15;;
27039;SDS011;14589;51.578;7.306;2023-08-24T09:34:19;5.05;;;1.40;;
27039;SDS011;14589;51.578;7.306;2023-08-24T09:36:51;4.85;;;1.67;;
27039;SDS011;14589;51.578;7.306;2023-08-24T09:39:21;3.03;;;1.13;;
27039;SDS011;14589;51.578;7.306;2023-08-24T09:41:51;5.97;;;1.80;;
27039;SDS011;14589;51.578;7.306;2023-08-24T09:44:23;4.30;;;1.52;;
27039;SDS011;14589;51.578;7.306;2023-08-24T09:46:54;6.18;;;1.88;;
27039;SDS011;14589;51.578;7.306;2023-08-24T09:49:24;4.15;;;1.52;;
27039;SDS011;14589;51.578;7.306;2023-08-24T09:51:56;6.03;;;1.45;;
27039;SDS011;14589;51.578;7.306;2023-08-24T09:54:27;8.13;;;1.42;;
27039;SDS011;14589;51.578;7.306;2023-08-24T09:56:59;3.95;;;1.13;;
27039;SDS011;14589;51.578;7.306;2023-08-24T09:59:30;4.88;;;1.23;;
27039;SDS011;14589;51.578;7.306;2023-08-24T10:02:02;2.38;;;1.20;;
27039;SDS011;14589;51.578;7.306;2023-08-24T10:04:35;2.53;;;1.13;;
27039;SDS011;14589;51.578;7.306;2023-08-24T10:07:08;4.35;;;1.15;;
27039;SDS011;14589;51.578;7.306;2023-08-24T10:09:47;3.72;;;1.58;;
27039;SDS011;14589;51.578;7.306;2023-08-24T10:12:41;2.85;;;1.10;;
27039;SDS011;14589;51.578;7.306;2023-08-24T10:15:17;3.70;;;1.60;;
27039;SDS011;14589;51.578;7.306;2023-08-24T10:17:48;3.72;;;1.65;;
27039;SDS011;14589;51.578;7.306;2023-08-24T10:20:20;4.88;;;1.77;;
27039;SDS011;14589;51.578;7.306;2023-08-24T10:22:52;3.03;;;0.47;;
27039;SDS011;14589;51.578;7.306;2023-08-24T10:25:23;3.08;;;1.10;;
27039;SDS011;14589;51.578;7.306;2023-08-24T10:30:26;5.28;;;0.60;;
27039;SDS011;14589;51.578;7.306;2023-08-24T10:32:59;5.13;;;1.75;;
27039;SDS011;14589;51.578;7.306;2023-08-24T10:35:30;3.20;;;0.80;;
27039;SDS011;14589;51.578;7.306;2023-08-24T10:38:01;2.40;;;1.23;;
27039;SDS011;14589;51.578;7.306;2023-08-24T10:43:07;6.85;;;1.42;;
27039;SDS011;14589;51.578;7.306;2023-08-24T10:45:53;2.85;;;1.20;;
27039;SDS011;14589;51.578;7.306;2023-08-24T10:48:24;4.93;;;1.70;;
27039;SDS011;14589;51.578;7.306;2023-08-24T10:53:52;5.00;;;1.20;;
27039;SDS011;14589;51.578;7.306;2023-08-24T10:56:35;3.63;;;1.77;;
27039;SDS011;14589;51.578;7.306;2023-08-24T11:04:21;3.92;;;2.00;;
27039;SDS011;14589;51.578;7.306;2023-08-24T11:06:53;2.00;;;1.13;;
27039;SDS011;14589;51.578;7.306;2023-08-24T11:09:24;4.30;;;1.45;;
27039;SDS011;14589;51.578;7.306;2023-08-24T11:11:55;6.75;;;1.58;;
27039;SDS011;14589;51.578;7.306;2023-08-24T11:14:28;4.60;;;1.42;;
27039;SDS011;14589;51.578;7.306;2023-08-24T11:17:00;5.88;;;2.13;;
27039;SDS011;14589;51.578;7.306;2023-08-24T11:19:48;7.45;;;1.90;;
27039;SDS011;14589;51.578;7.306;2023-08-24T11:22:20;5.30;;;1.38;;
27039;SDS011;14589;51.578;7.306;2023-08-24T11:24:53;2.72;;;1.00;;
27039;SDS011;14589;51.578;7.306;2023-08-24T11:27:24;3.97;;;1.55;;
27039;SDS011;14589;51.578;7.306;2023-08-24T11:29:59;3.70;;;1.48;;
27039;SDS011;14589;51.578;7.306;2023-08-24T11:32:30;3.42;;;1.67;;
27039;SDS011;14589;51.578;7.306;2023-08-24T11:35:00;4.07;;;1.58;;
27039;SDS011;14589;51.578;7.306;2023-08-24T11:37:31;5.72;;;1.40;;
27039;SDS011;14589;51.578;7.306;2023-08-24T11:40:01;2.47;;;1.35;;
27039;SDS011;14589;51.578;7.306;2023-08-24T11:45:10;3.75;;;0.77;;
27039;SDS011;14589;51.578;7.306;2023-08-24T11:47:42;3.65;;;1.65;;
27039;SDS011;14589;51.578;7.306;2023-08-24T11:50:13;2.60;;;1.27;;
27039;SDS011;14589;51.578;7.306;2023-08-24T11:52:43;2.83;;;1.00;;
27039;SDS011;14589;51.578;7.306;2023-08-24T11:55:14;2.63;;;1.38;;
27039;SDS011;14589;51.578;7.306;2023-08-24T11:57:45;2.03;;;1.20;;
27039;SDS011;14589;51.578;7.306;2023-08-24T12:00:15;3.22;;;1.52;;
27039;SDS011;14589;51.578;7.306;2023-08-24T12:02:47;4.05;;;1.23;;
27039;SDS011;14589;51.578;7.306;2023-08-24T12:05:21;5.28;;;1.38;;
27039;SDS011;14589;51.578;7.306;2023-08-24T12:07:53;2.20;;;1.27;;
27039;SDS011;14589;51.578;7.306;2023-08-24T12:10:24;2.83;;;0.82;;
27039;SDS011;14589;51.578;7.306;2023-08-24T12:13:04;2.67;;;1.38;;
27039;SDS011;14589;51.578;7.306;2023-08-24T12:15:36;3.72;;;1.30;;
27039;SDS011;14589;51.578;7.306;2023-08-24T12:18:10;3.60;;;1.08;;
27039;SDS011;14589;51.578;7.306;2023-08-24T12:20:42;2.88;;;1.75;;
27039;SDS011;14589;51.578;7.306;2023-08-24T12:23:13;4.43;;;0.85;;
27039;SDS011;14589;51.578;7.306;2023-08-24T12:25:44;2.38;;;1.13;;
27039;SDS011;14589;51.578;7.306;2023-08-24T12:28:15;2.70;;;1.33;;
27039;SDS011;14589;51.578;7.306;2023-08-24T12:30:50;2.85;;;0.50;;
27039;SDS011;14589;51.578;7.306;2023-08-24T12:33:25;2.80;;;0.90;;
27039;SDS011;14589;51.578;7.306;2023-08-24T12:35:58;3.17;;;1.08;;
27039;SDS011;14589;51.578;7.306;2023-08-24T12:38:29;1.70;;;0.85;;
27039;SDS011;14589;51.578;7.306;2023-08-24T12:40:59;2.95;;;1.00;;
27039;SDS011;14589;51.578;7.306;2023-08-24T12:43:29;2.05;;;1.38;;
27039;SDS011;14589;51.578;7.306;2023-08-24T12:46:00;2.80;;;1.23;;
27039;SDS011;14589;51.578;7.306;2023-08-24T12:48:30;3.42;;;0.77;;
27039;SDS011;14589;51.578;7.306;2023-08-24T12:51:01;3.25;;;1.38;;
27039;SDS011;14589;51.578;7.306;2023-08-24T12:53:31;2.65;;;0.77;;
27039;SDS011;14589;51.578;7.306;2023-08-24T12:56:01;4.70;;;0.88;;
27039;SDS011;14589;51.578;7.306;2023-08-24T12:58:32;4.90;;;0.98;;
27039;SDS011;14589;51.578;7.306;2023-08-24T13:01:10;2.40;;;1.77;;
27039;SDS011;14589;51.578;7.306;2023-08-24T13:03:42;1.80;;;0.85;;
27039;SDS011;14589;51.578;7.306;2023-08-24T13:06:12;2.40;;;0.68;;
27039;SDS011;14589;51.578;7.306;2023-08-24T13:08:42;8.90;;;5.88;;
27039;SDS011;14589;51.578;7.306;2023-08-24T13:13:44;5.90;;;3.10;;
27039;SDS011;14589;51.578;7.306;2023-08-24T13:16:17;3.47;;;1.40;;
27039;SDS011;14589;51.578;7.306;2023-08-24T13:18:48;2.67;;;1.25;;
27039;SDS011;14589;51.578;7.306;2023-08-24T13:21:19;3.25;;;1.55;;
27039;SDS011;14589;51.578;7.306;2023-08-24T13:23:50;7.50;;;1.40;;
27039;SDS011;14589;51.578;7.306;2023-08-24T13:26:20;3.20;;;1.08;;
27039;SDS011;14589;51.578;7.306;2023-08-24T13:28:53;2.63;;;0.70;;
27039;SDS011;14589;51.578;7.306;2023-08-24T13:31:24;4.68;;;1.30;;
27039;SDS011;14589;51.578;7.306;2023-08-24T13:33:54;3.97;;;1.15;;
27039;SDS011;14589;51.578;7.306;2023-08-24T13:36:24;3.67;;;1.23;;
27039;SDS011;14589;51.578;7.306;2023-08-24T13:38:55;3.47;;;0.93;;
27039;SDS011;14589;51.578;7.306;2023-08-24T13:41:25;4.13;;;1.27;;
27039;SDS011;14589;51.578;7.306;2023-08-24T13:43:56;3.47;;;1.10;;
27039;SDS011;14589;51.578;7.306;2023-08-24T13:46:26;2.70;;;1.45;;
27039;SDS011;14589;51.578;7.306;2023-08-24T13:48:57;2.05;;;0.77;;
27039;SDS011;14589;51.578;7.306;2023-08-24T13:51:27;4.47;;;1.60;;
27039;SDS011;14589;51.578;7.306;2023-08-24T13:53:57;3.95;;;1.48;;
27039;SDS011;14589;51.578;7.306;2023-08-24T13:56:28;3.42;;;1.15;;
27039;SDS011;14589;51.578;7.306;2023-08-24T13:58:59;3.58;;;0.98;;
27039;SDS011;14589;51.578;7.306;2023-08-24T14:01:29;4.63;;;1.30;;
27039;SDS011;14589;51.578;7.306;2023-08-24T14:03:59;6.03;;;1.58;;
27039;SDS011;14589;51.578;7.306;2023-08-24T14:06:31;3.28;;;0.85;;
27039;SDS011;14589;51.578;7.306;2023-08-24T14:09:05;2.28;;;1.00;;
27039;SDS011;14589;51.578;7.306;2023-08-24T14:11:36;7.85;;;1.10;;
27039;SDS011;14589;51.578;7.306;2023-08-24T14:14:06;4.40;;;0.98;;
27039;SDS011;14589;51.578;7.306;2023-08-24T14:16:36;1.85;;;0.80;;
27039;SDS011;14589;51.578;7.306;2023-08-24T14:19:07;3.22;;;1.02;;
27039;SDS011;14589;51.578;7.306;2023-08-24T14:21:37;2.83;;;0.88;;
27039;SDS011;14589;51.578;7.306;2023-08-24T14:24:07;3.47;;;1.00;;
27039;SDS011;14589;51.578;7.306;2023-08-24T14:26:38;3.28;;;1.20;;
27039;SDS011;14589;51.578;7.306;2023-08-24T14:29:15;5.40;;;0.68;;
27039;SDS011;14589;51.578;7.306;2023-08-24T14:31:45;3.60;;;0.50;;
27039;SDS011;14589;51.578;7.306;2023-08-24T14:34:16;2.78;;;1.27;;
27039;SDS011;14589;51.578;7.306;2023-08-24T14:36:46;3.95;;;2.00;;
27039;SDS011;14589;51.578;7.306;2023-08-24T14:39:17;4.65;;;1.05;;
27039;SDS011;14589;51.578;7.306;2023-08-24T14:41:47;3.25;;;1.13;;
27039;SDS011;14589;51.578;7.306;2023-08-24T14:44:17;3.08;;;1.50;;
27039;SDS011;14589;51.578;7.306;2023-08-24T14:46:48;3.38;;;0.85;;
27039;SDS011;14589;51.578;7.306;2023-08-24T14:49:18;4.22;;;0.98;;
27039;SDS011;14589;51.578;7.306;2023-08-24T14:51:49;2.45;;;0.63;;
27039;SDS011;14589;51.578;7.306;2023-08-24T14:54:19;3.53;;;1.35;;
27039;SDS011;14589;51.578;7.306;2023-08-24T14:56:49;6.30;;;1.30;;
27039;SDS011;14589;51.578;7.306;2023-08-24T14:59:20;4.35;;;0.93;;
27039;SDS011;14589;51.578;7.306;2023-08-24T15:04:23;2.97;;;1.48;;
27039;SDS011;14589;51.578;7.306;2023-08-24T15:06:53;3.63;;;0.90;;
27039;SDS011;14589;51.578;7.306;2023-08-24T15:09:24;2.80;;;1.27;;
27039;SDS011;14589;51.578;7.306;2023-08-24T15:11:54;3.58;;;2.13;;
27039;SDS011;14589;51.578;7.306;2023-08-24T15:14:27;3.40;;;1.63;;
27039;SDS011;14589;51.578;7.306;2023-08-24T15:17:01;6.47;;;1.85;;
27039;SDS011;14589;51.578;7.306;2023-08-24T15:19:31;3.90;;;0.80;;
27039;SDS011;14589;51.578;7.306;2023-08-24T15:22:01;2.65;;;1.15;;
27039;SDS011;14589;51.578;7.306;2023-08-24T15:24:32;3.42;;;1.88;;
27039;SDS011;14589;51.578;7.306;2023-08-24T15:27:02;3.22;;;1.15;;
27039;SDS011;14589;51.578;7.306;2023-08-24T15:29:33;4.20;;;1.33;;
27039;SDS011;14589;51.578;7.306;2023-08-24T15:32:03;3.10;;;0.68;;
27039;SDS011;14589;51.578;7.306;2023-08-24T15:34:34;4.22;;;1.23;;
27039;SDS011;14589;51.578;7.306;2023-08-24T15:37:04;4.07;;;2.08;;
27039;SDS011;14589;51.578;7.306;2023-08-24T15:39:36;4.55;;;1.40;;